sensor_id;sensor_type;location;lat;lon;timestamp;temperature;humidity
44215;DHT22;29884;47.450;19.124;2024-02-21T00:00:45;7.90;99.90
44215;DHT22;29884;47.450;19.124;2024-02-21T00:03:11;7.80;99.90
44215;DHT22;29884;47.450;19.124;2024-02-21T00:05:37;7.80;99.90
44215;DHT22;29884;47.450;19.124;2024-02-21T00:08:02;7.80;99.90
44215;DHT22;29884;47.450;19.124;2024-02-21T00:10:31;7.80;99.90
44215;DHT22;29884;47.450;19.124;2024-02-21T00:12:58;7.80;99.90
44215;DHT22;29884;47.450;19.124;2024-02-21T00:15:25;7.90;99.90
44215;DHT22;29884;47.450;19.124;2024-02-21T00:17:50;7.90;99.90
44215;DHT22;29884;47.450;19.124;2024-02-21T00:20:16;8.00;99.90
44215;DHT22;29884;47.450;19.124;2024-02-21T00:22:43;8.00;99.90
44215;DHT22;29884;47.450;19.124;2024-02-21T00:25:08;8.00;99.90
44215;DHT22;29884;47.450;19.124;2024-02-21T00:27:34;8.00;99.90
44215;DHT22;29884;47.450;19.124;2024-02-21T00:29:59;8.00;99.90
44215;DHT22;29884;47.450;19.124;2024-02-21T00:32:25;8.00;99.90
44215;DHT22;29884;47.450;19.124;2024-02-21T00:34:50;8.00;99.90
44215;DHT22;29884;47.450;19.124;2024-02-21T00:37:16;8.00;99.90
44215;DHT22;29884;47.450;19.124;2024-02-21T00:39:41;8.00;99.90
44215;DHT22;29884;47.450;19.124;2024-02-21T00:42:07;8.00;99.90
44215;DHT22;29884;47.450;19.124;2024-02-21T00:44:33;8.00;99.90
44215;DHT22;29884;47.450;19.124;2024-02-21T00:46:59;8.00;99.90
44215;DHT22;29884;47.450;19.124;2024-02-21T00:49:24;8.00;99.90
44215;DHT22;29884;47.450;19.124;2024-02-21T00:51:50;7.90;99.90
44215;DHT22;29884;47.450;19.124;2024-02-21T00:54:15;8.00;99.90
44215;DHT22;29884;47.450;19.124;2024-02-21T00:56:42;8.00;99.90
44215;DHT22;29884;47.450;19.124;2024-02-21T00:59:08;8.00;99.90
44215;DHT22;29884;47.450;19.124;2024-02-21T01:01:33;8.00;99.90
44215;DHT22;29884;47.450;19.124;2024-02-21T01:03:59;8.00;99.90
44215;DHT22;29884;47.450;19.124;2024-02-21T01:06:25;8.00;99.90
44215;DHT22;29884;47.450;19.124;2024-02-21T01:08:51;8.00;99.90
44215;DHT22;29884;47.450;19.124;2024-02-21T01:11:16;7.90;99.90
44215;DHT22;29884;47.450;19.124;2024-02-21T01:13:42;7.90;99.90
44215;DHT22;29884;47.450;19.124;2024-02-21T01:16:08;7.90;99.90
44215;DHT22;29884;47.450;19.124;2024-02-21T01:18:34;7.80;99.90
44215;DHT22;29884;47.450;19.124;2024-02-21T01:20:59;7.80;99.90
44215;DHT22;29884;47.450;19.124;2024-02-21T01:23:25;7.80;99.90
44215;DHT22;29884;47.450;19.124;2024-02-21T01:25:51;7.80;99.90
44215;DHT22;29884;47.450;19.124;2024-02-21T01:28:18;7.80;99.90
44215;DHT22;29884;47.450;19.124;2024-02-21T01:30:43;7.80;99.90
44215;DHT22;29884;47.450;19.124;2024-02-21T01:33:09;7.80;99.90
44215;DHT22;29884;47.450;19.124;2024-02-21T01:35:35;7.80;99.90
44215;DHT22;29884;47.450;19.124;2024-02-21T01:38:01;7.80;99.90
44215;DHT22;29884;47.450;19.124;2024-02-21T01:40:26;7.90;99.90
44215;DHT22;29884;47.450;19.124;2024-02-21T01:42:54;7.90;99.90
44215;DHT22;29884;47.450;19.124;2024-02-21T01:45:20;7.80;99.90
44215;DHT22;29884;47.450;19.124;2024-02-21T01:47:46;7.90;99.90
44215;DHT22;29884;47.450;19.124;2024-02-21T01:50:12;7.90;99.90
44215;DHT22;29884;47.450;19.124;2024-02-21T01:52:38;7.80;99.90
44215;DHT22;29884;47.450;19.124;2024-02-21T01:55:05;7.90;99.90
44215;DHT22;29884;47.450;19.124;2024-02-21T01:57:31;7.80;99.90
44215;DHT22;29884;47.450;19.124;2024-02-21T01:59:57;7.80;99.90
44215;DHT22;29884;47.450;19.124;2024-02-21T02:02:23;7.90;99.90
44215;DHT22;29884;47.450;19.124;2024-02-21T02:04:50;7.80;99.90
44215;DHT22;29884;47.450;19.124;2024-02-21T02:07:17;7.80;99.90
44215;DHT22;29884;47.450;19.124;2024-02-21T02:09:42;7.80;99.90
44215;DHT22;29884;47.450;19.124;2024-02-21T02:12:08;7.80;99.90
44215;DHT22;29884;47.450;19.124;2024-02-21T02:14:34;7.70;99.90
44215;DHT22;29884;47.450;19.124;2024-02-21T02:16:59;7.70;99.90
44215;DHT22;29884;47.450;19.124;2024-02-21T02:19:25;7.60;99.90
44215;DHT22;29884;47.450;19.124;2024-02-21T02:21:56;7.60;99.90
44215;DHT22;29884;47.450;19.124;2024-02-21T02:24:24;7.60;99.90
44215;DHT22;29884;47.450;19.124;2024-02-21T02:26:53;7.60;99.90
44215;DHT22;29884;47.450;19.124;2024-02-21T02:29:18;7.60;99.90
44215;DHT22;29884;47.450;19.124;2024-02-21T02:31:44;7.60;99.90
44215;DHT22;29884;47.450;19.124;2024-02-21T02:34:10;7.60;99.90
44215;DHT22;29884;47.450;19.124;2024-02-21T02:36:36;7.60;99.90
44215;DHT22;29884;47.450;19.124;2024-02-21T02:39:01;7.60;99.90
44215;DHT22;29884;47.450;19.124;2024-02-21T02:41:27;7.50;99.90
44215;DHT22;29884;47.450;19.124;2024-02-21T02:43:53;7.50;99.90
44215;DHT22;29884;47.450;19.124;2024-02-21T02:46:18;7.50;99.90
44215;DHT22;29884;47.450;19.124;2024-02-21T02:48:44;7.40;99.90
44215;DHT22;29884;47.450;19.124;2024-02-21T02:51:10;7.40;99.90
44215;DHT22;29884;47.450;19.124;2024-02-21T02:53:36;7.40;99.90
44215;DHT22;29884;47.450;19.124;2024-02-21T02:56:01;7.30;99.90
44215;DHT22;29884;47.450;19.124;2024-02-21T02:58:28;7.30;99.90
44215;DHT22;29884;47.450;19.124;2024-02-21T03:00:53;7.30;99.90
44215;DHT22;29884;47.450;19.124;2024-02-21T03:03:19;7.20;99.90
44215;DHT22;29884;47.450;19.124;2024-02-21T03:05:45;7.30;99.90
44215;DHT22;29884;47.450;19.124;2024-02-21T03:08:11;7.20;99.90
44215;DHT22;29884;47.450;19.124;2024-02-21T03:10:37;7.20;99.90
44215;DHT22;29884;47.450;19.124;2024-02-21T03:13:02;7.20;99.90
44215;DHT22;29884;47.450;19.124;2024-02-21T03:15:29;7.20;99.90
44215;DHT22;29884;47.450;19.124;2024-02-21T03:17:54;7.20;99.90
44215;DHT22;29884;47.450;19.124;2024-02-21T03:20:20;7.20;99.90
44215;DHT22;29884;47.450;19.124;2024-02-21T03:22:45;7.10;99.90
44215;DHT22;29884;47.450;19.124;2024-02-21T03:25:11;7.20;99.90
44215;DHT22;29884;47.450;19.124;2024-02-21T03:27:38;7.10;99.90
44215;DHT22;29884;47.450;19.124;2024-02-21T03:30:04;7.20;99.90
44215;DHT22;29884;47.450;19.124;2024-02-21T03:32:30;7.10;99.90
44215;DHT22;29884;47.450;19.124;2024-02-21T03:34:55;7.20;99.90
44215;DHT22;29884;47.450;19.124;2024-02-21T03:37:21;7.20;99.90
44215;DHT22;29884;47.450;19.124;2024-02-21T03:39:47;7.30;99.90
44215;DHT22;29884;47.450;19.124;2024-02-21T03:42:13;7.30;99.90
44215;DHT22;29884;47.450;19.124;2024-02-21T03:44:39;7.20;99.90
44215;DHT22;29884;47.450;19.124;2024-02-21T03:47:04;7.20;99.90
44215;DHT22;29884;47.450;19.124;2024-02-21T03:49:30;7.20;99.90
44215;DHT22;29884;47.450;19.124;2024-02-21T03:51:56;7.10;99.90
44215;DHT22;29884;47.450;19.124;2024-02-21T03:54:21;7.00;99.90
44215;DHT22;29884;47.450;19.124;2024-02-21T03:56:47;7.00;99.90
44215;DHT22;29884;47.450;19.124;2024-02-21T03:59:14;7.00;99.90
44215;DHT22;29884;47.450;19.124;2024-02-21T04:01:39;6.90;99.90
44215;DHT22;29884;47.450;19.124;2024-02-21T04:04:05;6.90;99.90
44215;DHT22;29884;47.450;19.124;2024-02-21T04:06:31;6.80;99.90
44215;DHT22;29884;47.450;19.124;2024-02-21T04:08:57;6.80;99.90
44215;DHT22;29884;47.450;19.124;2024-02-21T04:11:22;6.80;99.90
44215;DHT22;29884;47.450;19.124;2024-02-21T04:13:48;6.70;99.90
44215;DHT22;29884;47.450;19.124;2024-02-21T04:16:16;6.60;99.90
44215;DHT22;29884;47.450;19.124;2024-02-21T04:18:42;6.70;99.90
44215;DHT22;29884;47.450;19.124;2024-02-21T04:21:08;6.60;99.90
44215;DHT22;29884;47.450;19.124;2024-02-21T04:23:34;6.60;99.90
44215;DHT22;29884;47.450;19.124;2024-02-21T04:25:59;6.60;99.90
44215;DHT22;29884;47.450;19.124;2024-02-21T04:28:25;6.50;99.90
44215;DHT22;29884;47.450;19.124;2024-02-21T04:30:51;6.50;99.90
44215;DHT22;29884;47.450;19.124;2024-02-21T04:33:16;6.40;99.90
44215;DHT22;29884;47.450;19.124;2024-02-21T04:35:42;6.40;99.90
44215;DHT22;29884;47.450;19.124;2024-02-21T04:38:07;6.40;99.90
44215;DHT22;29884;47.450;19.124;2024-02-21T04:40:33;6.40;99.90
44215;DHT22;29884;47.450;19.124;2024-02-21T04:42:59;6.30;99.90
44215;DHT22;29884;47.450;19.124;2024-02-21T04:45:24;6.30;99.90
44215;DHT22;29884;47.450;19.124;2024-02-21T04:47:50;6.30;99.90
44215;DHT22;29884;47.450;19.124;2024-02-21T04:50:16;6.30;99.90
44215;DHT22;29884;47.450;19.124;2024-02-21T04:52:42;6.30;99.90
44215;DHT22;29884;47.450;19.124;2024-02-21T04:55:08;6.30;99.90
44215;DHT22;29884;47.450;19.124;2024-02-21T04:57:33;6.30;99.90
44215;DHT22;29884;47.450;19.124;2024-02-21T04:59:59;6.30;99.90
44215;DHT22;29884;47.450;19.124;2024-02-21T05:02:25;6.30;99.90
44215;DHT22;29884;47.450;19.124;2024-02-21T05:04:52;6.30;99.90
44215;DHT22;29884;47.450;19.124;2024-02-21T05:07:17;6.30;99.90
44215;DHT22;29884;47.450;19.124;2024-02-21T05:09:45;6.40;99.90
44215;DHT22;29884;47.450;19.124;2024-02-21T05:12:10;6.40;99.90
44215;DHT22;29884;47.450;19.124;2024-02-21T05:14:36;6.30;99.90
44215;DHT22;29884;47.450;19.124;2024-02-21T05:17:03;6.30;99.90
44215;DHT22;29884;47.450;19.124;2024-02-21T05:19:28;6.30;99.90
44215;DHT22;29884;47.450;19.124;2024-02-21T05:21:54;6.30;99.90
44215;DHT22;29884;47.450;19.124;2024-02-21T05:24:20;6.20;99.90
44215;DHT22;29884;47.450;19.124;2024-02-21T05:26:45;6.20;99.90
44215;DHT22;29884;47.450;19.124;2024-02-21T05:29:11;6.20;99.90
44215;DHT22;29884;47.450;19.124;2024-02-21T05:31:55;6.20;99.90
44215;DHT22;29884;47.450;19.124;2024-02-21T05:34:24;6.20;99.90
44215;DHT22;29884;47.450;19.124;2024-02-21T05:36:51;6.20;99.90
44215;DHT22;29884;47.450;19.124;2024-02-21T05:39:17;6.20;99.90
44215;DHT22;29884;47.450;19.124;2024-02-21T05:41:43;6.20;99.90
44215;DHT22;29884;47.450;19.124;2024-02-21T05:44:08;6.10;99.90
44215;DHT22;29884;47.450;19.124;2024-02-21T05:46:34;6.10;99.90
44215;DHT22;29884;47.450;19.124;2024-02-21T05:49:00;6.10;99.90
44215;DHT22;29884;47.450;19.124;2024-02-21T05:51:26;6.20;99.90
44215;DHT22;29884;47.450;19.124;2024-02-21T05:53:52;6.20;99.90
44215;DHT22;29884;47.450;19.124;2024-02-21T05:56:17;6.20;99.90
44215;DHT22;29884;47.450;19.124;2024-02-21T05:58:43;6.20;99.90
44215;DHT22;29884;47.450;19.124;2024-02-21T06:01:09;6.20;99.90
44215;DHT22;29884;47.450;19.124;2024-02-21T06:03:35;6.10;99.90
44215;DHT22;29884;47.450;19.124;2024-02-21T06:06:01;6.20;99.90
44215;DHT22;29884;47.450;19.124;2024-02-21T06:08:27;6.30;99.90
44215;DHT22;29884;47.450;19.124;2024-02-21T06:10:53;6.30;99.90
44215;DHT22;29884;47.450;19.124;2024-02-21T06:13:20;6.30;99.90
44215;DHT22;29884;47.450;19.124;2024-02-21T06:15:49;6.50;99.90
44215;DHT22;29884;47.450;19.124;2024-02-21T06:18:19;6.80;99.90
44215;DHT22;29884;47.450;19.124;2024-02-21T06:20:45;7.00;99.90
44215;DHT22;29884;47.450;19.124;2024-02-21T06:23:15;7.20;99.90
44215;DHT22;29884;47.450;19.124;2024-02-21T06:25:44;7.40;99.90
44215;DHT22;29884;47.450;19.124;2024-02-21T06:28:09;7.40;99.90
44215;DHT22;29884;47.450;19.124;2024-02-21T06:30:35;7.60;99.90
44215;DHT22;29884;47.450;19.124;2024-02-21T06:33:01;7.80;99.90
44215;DHT22;29884;47.450;19.124;2024-02-21T06:35:28;7.90;99.90
44215;DHT22;29884;47.450;19.124;2024-02-21T06:37:54;8.10;99.90
44215;DHT22;29884;47.450;19.124;2024-02-21T06:40:22;8.30;99.90
44215;DHT22;29884;47.450;19.124;2024-02-21T06:42:48;8.40;99.90
44215;DHT22;29884;47.450;19.124;2024-02-21T06:45:14;8.30;99.90
44215;DHT22;29884;47.450;19.124;2024-02-21T06:47:40;8.40;99.90
44215;DHT22;29884;47.450;19.124;2024-02-21T06:50:05;8.50;99.90
44215;DHT22;29884;47.450;19.124;2024-02-21T06:52:31;8.70;99.90
44215;DHT22;29884;47.450;19.124;2024-02-21T06:54:57;8.90;99.90
44215;DHT22;29884;47.450;19.124;2024-02-21T06:57:23;8.80;99.90
44215;DHT22;29884;47.450;19.124;2024-02-21T06:59:49;8.90;99.90
44215;DHT22;29884;47.450;19.124;2024-02-21T07:02:14;9.00;99.90
44215;DHT22;29884;47.450;19.124;2024-02-21T07:04:40;8.90;99.90
44215;DHT22;29884;47.450;19.124;2024-02-21T07:07:06;8.70;99.90
44215;DHT22;29884;47.450;19.124;2024-02-21T07:09:31;8.70;99.90
44215;DHT22;29884;47.450;19.124;2024-02-21T07:12:00;8.70;99.90
44215;DHT22;29884;47.450;19.124;2024-02-21T07:14:28;9.00;99.90
44215;DHT22;29884;47.450;19.124;2024-02-21T07:16:53;9.20;99.90
44215;DHT22;29884;47.450;19.124;2024-02-21T07:19:19;9.20;99.90
44215;DHT22;29884;47.450;19.124;2024-02-21T07:21:45;9.30;99.90
44215;DHT22;29884;47.450;19.124;2024-02-21T07:24:11;9.10;99.90
44215;DHT22;29884;47.450;19.124;2024-02-21T07:26:36;9.30;99.90
44215;DHT22;29884;47.450;19.124;2024-02-21T07:29:02;9.30;99.90
44215;DHT22;29884;47.450;19.124;2024-02-21T07:31:27;9.50;99.90
44215;DHT22;29884;47.450;19.124;2024-02-21T07:33:53;9.50;99.90
44215;DHT22;29884;47.450;19.124;2024-02-21T07:36:31;9.60;99.90
44215;DHT22;29884;47.450;19.124;2024-02-21T07:38:56;9.30;99.90
44215;DHT22;29884;47.450;19.124;2024-02-21T07:41:22;9.50;99.90
44215;DHT22;29884;47.450;19.124;2024-02-21T07:43:47;9.70;99.90
44215;DHT22;29884;47.450;19.124;2024-02-21T07:46:14;9.50;99.90
44215;DHT22;29884;47.450;19.124;2024-02-21T07:48:40;9.60;99.90
44215;DHT22;29884;47.450;19.124;2024-02-21T07:51:05;9.50;99.90
44215;DHT22;29884;47.450;19.124;2024-02-21T07:53:31;9.40;99.90
44215;DHT22;29884;47.450;19.124;2024-02-21T07:55:57;9.70;99.90
44215;DHT22;29884;47.450;19.124;2024-02-21T07:58:22;9.90;99.90
44215;DHT22;29884;47.450;19.124;2024-02-21T08:00:48;9.80;99.90
44215;DHT22;29884;47.450;19.124;2024-02-21T08:03:14;9.60;99.90
44215;DHT22;29884;47.450;19.124;2024-02-21T08:05:40;9.70;99.90
44215;DHT22;29884;47.450;19.124;2024-02-21T08:08:06;9.80;99.90
44215;DHT22;29884;47.450;19.124;2024-02-21T08:10:33;9.90;99.90
44215;DHT22;29884;47.450;19.124;2024-02-21T08:12:59;9.90;99.90
44215;DHT22;29884;47.450;19.124;2024-02-21T08:15:25;10.10;99.90
44215;DHT22;29884;47.450;19.124;2024-02-21T08:17:53;10.10;99.90
44215;DHT22;29884;47.450;19.124;2024-02-21T08:20:24;10.10;99.90
44215;DHT22;29884;47.450;19.124;2024-02-21T08:22:49;10.20;99.90
44215;DHT22;29884;47.450;19.124;2024-02-21T08:25:15;10.40;99.90
44215;DHT22;29884;47.450;19.124;2024-02-21T08:27:40;10.40;99.90
44215;DHT22;29884;47.450;19.124;2024-02-21T08:30:06;10.50;99.90
44215;DHT22;29884;47.450;19.124;2024-02-21T08:32:34;10.50;99.90
44215;DHT22;29884;47.450;19.124;2024-02-21T08:35:01;10.50;99.90
44215;DHT22;29884;47.450;19.124;2024-02-21T08:37:30;10.50;99.90
44215;DHT22;29884;47.450;19.124;2024-02-21T08:39:55;10.40;99.90
44215;DHT22;29884;47.450;19.124;2024-02-21T08:42:21;10.50;99.90
44215;DHT22;29884;47.450;19.124;2024-02-21T08:44:47;10.60;99.90
44215;DHT22;29884;47.450;19.124;2024-02-21T08:47:12;10.60;99.90
44215;DHT22;29884;47.450;19.124;2024-02-21T08:49:38;10.60;99.90
44215;DHT22;29884;47.450;19.124;2024-02-21T08:52:04;10.60;99.90
44215;DHT22;29884;47.450;19.124;2024-02-21T08:54:31;10.80;99.90
44215;DHT22;29884;47.450;19.124;2024-02-21T08:56:58;10.90;99.90
44215;DHT22;29884;47.450;19.124;2024-02-21T08:59:23;10.80;99.90
44215;DHT22;29884;47.450;19.124;2024-02-21T09:01:51;10.90;99.90
44215;DHT22;29884;47.450;19.124;2024-02-21T09:04:17;10.70;99.90
44215;DHT22;29884;47.450;19.124;2024-02-21T09:06:43;10.80;99.90
44215;DHT22;29884;47.450;19.124;2024-02-21T09:09:09;10.90;99.90
44215;DHT22;29884;47.450;19.124;2024-02-21T09:11:35;11.10;99.90
44215;DHT22;29884;47.450;19.124;2024-02-21T09:14:00;11.20;99.90
44215;DHT22;29884;47.450;19.124;2024-02-21T09:16:26;11.20;99.90
44215;DHT22;29884;47.450;19.124;2024-02-21T09:18:52;11.10;99.90
44215;DHT22;29884;47.450;19.124;2024-02-21T09:21:18;11.10;99.90
44215;DHT22;29884;47.450;19.124;2024-02-21T09:23:45;11.20;99.90
44215;DHT22;29884;47.450;19.124;2024-02-21T09:26:10;11.10;99.90
44215;DHT22;29884;47.450;19.124;2024-02-21T09:28:39;11.10;99.90
44215;DHT22;29884;47.450;19.124;2024-02-21T09:31:05;11.30;99.90
44215;DHT22;29884;47.450;19.124;2024-02-21T09:33:30;11.60;99.90
44215;DHT22;29884;47.450;19.124;2024-02-21T09:35:56;11.70;98.60
44215;DHT22;29884;47.450;19.124;2024-02-21T09:38:21;11.90;98.60
44215;DHT22;29884;47.450;19.124;2024-02-21T09:40:47;12.10;98.30
44215;DHT22;29884;47.450;19.124;2024-02-21T09:43:17;12.10;97.00
44215;DHT22;29884;47.450;19.124;2024-02-21T09:45:46;12.10;97.60
44215;DHT22;29884;47.450;19.124;2024-02-21T09:48:25;11.80;97.00
44215;DHT22;29884;47.450;19.124;2024-02-21T09:50:54;11.80;97.70
44215;DHT22;29884;47.450;19.124;2024-02-21T09:53:20;11.50;96.60
44215;DHT22;29884;47.450;19.124;2024-02-21T09:55:48;11.20;97.20
44215;DHT22;29884;47.450;19.124;2024-02-21T09:58:14;11.10;97.50
44215;DHT22;29884;47.450;19.124;2024-02-21T10:00:40;11.00;98.20
44215;DHT22;29884;47.450;19.124;2024-02-21T10:03:06;11.30;98.30
44215;DHT22;29884;47.450;19.124;2024-02-21T10:05:35;11.50;98.30
44215;DHT22;29884;47.450;19.124;2024-02-21T10:08:01;11.60;97.70
44215;DHT22;29884;47.450;19.124;2024-02-21T10:10:27;11.80;96.50
44215;DHT22;29884;47.450;19.124;2024-02-21T10:12:53;11.70;95.50
44215;DHT22;29884;47.450;19.124;2024-02-21T10:15:24;11.60;94.70
44215;DHT22;29884;47.450;19.124;2024-02-21T10:17:58;11.60;93.50
44215;DHT22;29884;47.450;19.124;2024-02-21T10:20:24;11.90;93.30
44215;DHT22;29884;47.450;19.124;2024-02-21T10:23:03;12.00;92.20
44215;DHT22;29884;47.450;19.124;2024-02-21T10:25:36;12.00;92.60
44215;DHT22;29884;47.450;19.124;2024-02-21T10:28:07;12.20;92.00
44215;DHT22;29884;47.450;19.124;2024-02-21T10:30:32;12.30;91.70
44215;DHT22;29884;47.450;19.124;2024-02-21T10:32:58;12.40;91.90
44215;DHT22;29884;47.450;19.124;2024-02-21T10:35:31;12.50;91.70
44215;DHT22;29884;47.450;19.124;2024-02-21T10:37:58;12.60;91.10
44215;DHT22;29884;47.450;19.124;2024-02-21T10:40:28;12.70;88.60
44215;DHT22;29884;47.450;19.124;2024-02-21T10:42:57;12.60;89.10
44215;DHT22;29884;47.450;19.124;2024-02-21T10:45:32;12.50;89.70
44215;DHT22;29884;47.450;19.124;2024-02-21T10:48:11;12.70;90.00
44215;DHT22;29884;47.450;19.124;2024-02-21T10:50:56;12.50;90.10
44215;DHT22;29884;47.450;19.124;2024-02-21T10:53:44;12.50;91.00
44215;DHT22;29884;47.450;19.124;2024-02-21T10:56:22;12.40;91.30
44215;DHT22;29884;47.450;19.124;2024-02-21T10:58:50;12.40;92.80
44215;DHT22;29884;47.450;19.124;2024-02-21T11:01:17;12.30;92.90
44215;DHT22;29884;47.450;19.124;2024-02-21T11:03:45;12.30;92.10
44215;DHT22;29884;47.450;19.124;2024-02-21T11:06:12;12.30;92.40
44215;DHT22;29884;47.450;19.124;2024-02-21T11:08:38;12.30;92.30
44215;DHT22;29884;47.450;19.124;2024-02-21T11:11:05;12.30;92.30
44215;DHT22;29884;47.450;19.124;2024-02-21T11:13:36;12.10;92.40
44215;DHT22;29884;47.450;19.124;2024-02-21T11:16:09;12.30;92.80
44215;DHT22;29884;47.450;19.124;2024-02-21T11:18:39;12.20;92.20
44215;DHT22;29884;47.450;19.124;2024-02-21T11:21:05;12.20;91.70
44215;DHT22;29884;47.450;19.124;2024-02-21T11:23:31;12.30;90.70
44215;DHT22;29884;47.450;19.124;2024-02-21T11:26:09;12.50;91.60
44215;DHT22;29884;47.450;19.124;2024-02-21T11:28:36;12.70;90.20
44215;DHT22;29884;47.450;19.124;2024-02-21T11:31:10;12.70;90.00
44215;DHT22;29884;47.450;19.124;2024-02-21T11:33:40;13.10;89.10
44215;DHT22;29884;47.450;19.124;2024-02-21T11:36:06;12.90;85.40
44215;DHT22;29884;47.450;19.124;2024-02-21T11:38:32;12.80;87.40
44215;DHT22;29884;47.450;19.124;2024-02-21T11:40:57;12.60;87.00
44215;DHT22;29884;47.450;19.124;2024-02-21T11:43:23;12.60;88.60
44215;DHT22;29884;47.450;19.124;2024-02-21T11:45:49;12.50;88.10
44215;DHT22;29884;47.450;19.124;2024-02-21T11:48:15;12.40;88.70
44215;DHT22;29884;47.450;19.124;2024-02-21T11:50:40;12.30;90.00
44215;DHT22;29884;47.450;19.124;2024-02-21T11:53:06;12.30;89.80
44215;DHT22;29884;47.450;19.124;2024-02-21T11:55:31;12.20;90.60
44215;DHT22;29884;47.450;19.124;2024-02-21T11:57:57;12.20;90.70
44215;DHT22;29884;47.450;19.124;2024-02-21T12:00:23;12.30;90.90
44215;DHT22;29884;47.450;19.124;2024-02-21T12:02:51;12.20;90.50
44215;DHT22;29884;47.450;19.124;2024-02-21T12:05:19;12.20;89.40
44215;DHT22;29884;47.450;19.124;2024-02-21T12:07:45;12.10;88.40
44215;DHT22;29884;47.450;19.124;2024-02-21T12:10:12;12.10;90.00
44215;DHT22;29884;47.450;19.124;2024-02-21T12:12:38;12.10;88.20
44215;DHT22;29884;47.450;19.124;2024-02-21T12:15:05;12.00;85.50
44215;DHT22;29884;47.450;19.124;2024-02-21T12:17:33;12.00;84.70
44215;DHT22;29884;47.450;19.124;2024-02-21T12:19:59;12.00;85.40
44215;DHT22;29884;47.450;19.124;2024-02-21T12:22:25;12.00;85.70
44215;DHT22;29884;47.450;19.124;2024-02-21T12:24:51;12.00;86.90
44215;DHT22;29884;47.450;19.124;2024-02-21T12:27:16;12.00;86.60
44215;DHT22;29884;47.450;19.124;2024-02-21T12:29:42;11.90;86.80
44215;DHT22;29884;47.450;19.124;2024-02-21T12:32:07;11.90;85.00
44215;DHT22;29884;47.450;19.124;2024-02-21T12:34:33;12.00;87.80
44215;DHT22;29884;47.450;19.124;2024-02-21T12:36:59;12.00;86.40
44215;DHT22;29884;47.450;19.124;2024-02-21T12:39:25;12.30;86.10
44215;DHT22;29884;47.450;19.124;2024-02-21T12:41:54;12.60;84.90
44215;DHT22;29884;47.450;19.124;2024-02-21T12:44:21;12.90;83.80
44215;DHT22;29884;47.450;19.124;2024-02-21T12:46:46;12.90;82.30
44215;DHT22;29884;47.450;19.124;2024-02-21T12:49:17;12.80;81.10
44215;DHT22;29884;47.450;19.124;2024-02-21T12:51:43;12.60;81.30
44215;DHT22;29884;47.450;19.124;2024-02-21T12:54:09;12.40;82.00
44215;DHT22;29884;47.450;19.124;2024-02-21T12:56:36;12.40;81.90
44215;DHT22;29884;47.450;19.124;2024-02-21T12:59:02;12.40;82.20
44215;DHT22;29884;47.450;19.124;2024-02-21T13:01:28;12.30;79.30
44215;DHT22;29884;47.450;19.124;2024-02-21T13:03:53;12.30;80.50
44215;DHT22;29884;47.450;19.124;2024-02-21T13:06:19;12.20;77.80
44215;DHT22;29884;47.450;19.124;2024-02-21T13:08:45;12.20;80.10
44215;DHT22;29884;47.450;19.124;2024-02-21T13:11:12;12.10;78.20
44215;DHT22;29884;47.450;19.124;2024-02-21T13:13:38;12.00;78.70
44215;DHT22;29884;47.450;19.124;2024-02-21T13:16:04;12.00;78.30
44215;DHT22;29884;47.450;19.124;2024-02-21T13:18:29;11.90;78.60
44215;DHT22;29884;47.450;19.124;2024-02-21T13:20:55;11.90;80.20
44215;DHT22;29884;47.450;19.124;2024-02-21T13:23:21;11.90;80.90
44215;DHT22;29884;47.450;19.124;2024-02-21T13:25:47;11.80;81.70
44215;DHT22;29884;47.450;19.124;2024-02-21T13:28:12;11.70;82.40
44215;DHT22;29884;47.450;19.124;2024-02-21T13:30:38;11.70;83.50
44215;DHT22;29884;47.450;19.124;2024-02-21T13:33:06;11.70;82.00
44215;DHT22;29884;47.450;19.124;2024-02-21T13:35:32;11.90;83.40
44215;DHT22;29884;47.450;19.124;2024-02-21T13:37:58;12.00;81.10
44215;DHT22;29884;47.450;19.124;2024-02-21T13:40:23;12.20;77.60
44215;DHT22;29884;47.450;19.124;2024-02-21T13:42:50;12.30;75.10
44215;DHT22;29884;47.450;19.124;2024-02-21T13:45:16;12.40;73.00
44215;DHT22;29884;47.450;19.124;2024-02-21T13:47:42;12.50;73.00
44215;DHT22;29884;47.450;19.124;2024-02-21T13:50:07;12.70;69.60
44215;DHT22;29884;47.450;19.124;2024-02-21T13:52:36;12.80;70.30
44215;DHT22;29884;47.450;19.124;2024-02-21T13:55:02;12.80;69.60
44215;DHT22;29884;47.450;19.124;2024-02-21T13:57:28;12.90;68.00
44215;DHT22;29884;47.450;19.124;2024-02-21T13:59:53;12.80;66.30
44215;DHT22;29884;47.450;19.124;2024-02-21T14:02:19;12.80;65.50
44215;DHT22;29884;47.450;19.124;2024-02-21T14:04:45;12.70;65.40
44215;DHT22;29884;47.450;19.124;2024-02-21T14:07:10;12.50;66.80
44215;DHT22;29884;47.450;19.124;2024-02-21T14:09:36;12.40;66.40
44215;DHT22;29884;47.450;19.124;2024-02-21T14:12:02;12.40;67.00
44215;DHT22;29884;47.450;19.124;2024-02-21T14:14:27;12.40;68.50
44215;DHT22;29884;47.450;19.124;2024-02-21T14:16:53;12.30;69.30
44215;DHT22;29884;47.450;19.124;2024-02-21T14:19:19;12.10;69.90
44215;DHT22;29884;47.450;19.124;2024-02-21T14:21:44;11.90;70.90
44215;DHT22;29884;47.450;19.124;2024-02-21T14:24:11;11.80;71.90
44215;DHT22;29884;47.450;19.124;2024-02-21T14:26:37;11.80;71.70
44215;DHT22;29884;47.450;19.124;2024-02-21T14:29:03;11.90;72.20
44215;DHT22;29884;47.450;19.124;2024-02-21T14:31:31;11.80;71.50
44215;DHT22;29884;47.450;19.124;2024-02-21T14:33:57;11.80;72.50
44215;DHT22;29884;47.450;19.124;2024-02-21T14:36:22;11.90;73.80
44215;DHT22;29884;47.450;19.124;2024-02-21T14:38:49;11.80;73.70
44215;DHT22;29884;47.450;19.124;2024-02-21T14:41:17;11.80;73.90
44215;DHT22;29884;47.450;19.124;2024-02-21T14:43:42;11.80;75.00
44215;DHT22;29884;47.450;19.124;2024-02-21T14:46:09;11.80;73.80
44215;DHT22;29884;47.450;19.124;2024-02-21T14:48:34;11.80;73.50
44215;DHT22;29884;47.450;19.124;2024-02-21T14:51:00;11.80;73.10
44215;DHT22;29884;47.450;19.124;2024-02-21T14:53:26;11.80;71.30
44215;DHT22;29884;47.450;19.124;2024-02-21T14:55:52;11.80;70.70
44215;DHT22;29884;47.450;19.124;2024-02-21T14:58:17;11.70;70.30
44215;DHT22;29884;47.450;19.124;2024-02-21T15:00:45;11.70;69.60
44215;DHT22;29884;47.450;19.124;2024-02-21T15:03:12;11.80;68.80
44215;DHT22;29884;47.450;19.124;2024-02-21T15:05:41;11.70;70.20
44215;DHT22;29884;47.450;19.124;2024-02-21T15:08:06;11.80;69.20
44215;DHT22;29884;47.450;19.124;2024-02-21T15:10:34;11.80;70.40
44215;DHT22;29884;47.450;19.124;2024-02-21T15:13:00;11.70;72.10
44215;DHT22;29884;47.450;19.124;2024-02-21T15:15:26;11.80;71.90
44215;DHT22;29884;47.450;19.124;2024-02-21T15:17:51;11.70;72.60
44215;DHT22;29884;47.450;19.124;2024-02-21T15:20:17;11.80;71.20